Time;durP1;ratioP1;P1;durP2;ratioP2;P2;SDS_P1;SDS_P2;PMS_P1;PMS_P2;Temp;Humidity;BMP_temperature;BMP_pressure;BME280_temperature;BME280_humidity;BME280_pressure;Samples;Min_cycle;Max_cycle;Signal;HPM_P1;HPM_P2
2024/01/03 00:01:28;;;;;;;9.32;1.55;;;;;;;;;;4970154;28;19918;-65
2024/01/03 00:03:55;;;;;;;6.90;2.03;;;;;;;;;;4970418;28;20042;-65
2024/01/03 00:06:21;;;;;;;13.07;2.22;;;;;;;;;;4970561;28;20050;-65
2024/01/03 00:08:47;;;;;;;12.77;1.38;;;;;;;;;;4969976;28;20038;-65
2024/01/03 00:11:18;;;;;;;9.55;1.85;;;;;;;;;;4971796;28;20043;-65
2024/01/03 00:14:03;;;;;;;10.67;1.80;;;;;;;;;;4989765;28;20053;-64
2024/01/03 00:16:30;;;;;;;10.75;1.90;;;;;;;;;;4989581;28;20046;-64
2024/01/03 00:19:00;;;;;;;12.52;1.75;;;;;;;;;;4985393;28;20574;-64
2024/01/03 00:21:27;;;;;;;9.35;1.60;;;;;;;;;;4952756;28;20677;-65
2024/01/03 00:24:03;;;;;;;10.38;1.70;;;;;;;;;;4970373;28;20089;-65
2024/01/03 00:26:30;;;;;;;10.80;1.92;;;;;;;;;;4952406;28;20054;-65
2024/01/03 00:28:59;;;;;;;10.52;2.25;;;;;;;;;;4969796;28;20047;-65
2024/01/03 00:31:28;;;;;;;10.38;1.75;;;;;;;;;;4970410;28;20074;-65
2024/01/03 00:33:54;;;;;;;18.38;1.80;;;;;;;;;;4969091;28;20035;-65
2024/01/03 00:36:20;;;;;;;17.10;2.03;;;;;;;;;;4969707;28;20174;-65
2024/01/03 00:38:46;;;;;;;13.00;2.08;;;;;;;;;;4969756;28;20572;-65
2024/01/03 00:41:12;;;;;;;10.27;1.70;;;;;;;;;;4969634;28;20035;-65
2024/01/03 00:43:39;;;;;;;5.43;1.13;;;;;;;;;;4969602;28;20042;-65
2024/01/03 00:46:06;;;;;;;14.73;1.80;;;;;;;;;;4969684;28;20030;-65
2024/01/03 00:48:32;;;;;;;12.57;1.90;;;;;;;;;;4969920;28;20082;-65
2024/01/03 00:50:59;;;;;;;13.95;2.22;;;;;;;;;;4969481;28;20038;-65
2024/01/03 00:53:25;;;;;;;12.23;1.80;;;;;;;;;;4969970;28;20069;-64
2024/01/03 00:55:51;;;;;;;15.00;2.00;;;;;;;;;;4969552;28;20501;-64
2024/01/03 00:58:18;;;;;;;9.90;1.58;;;;;;;;;;4969711;28;20767;-65
2024/01/03 01:00:44;;;;;;;13.40;1.75;;;;;;;;;;4969090;28;20086;-65
2024/01/03 01:03:10;;;;;;;13.38;1.98;;;;;;;;;;4952156;28;20053;-65
2024/01/03 01:05:36;;;;;;;15.55;2.20;;;;;;;;;;4969438;28;20524;-64
2024/01/03 01:08:02;;;;;;;8.57;1.38;;;;;;;;;;4969240;28;20035;-65
2024/01/03 01:10:28;;;;;;;11.07;1.30;;;;;;;;;;4969284;28;20046;-65
2024/01/03 01:12:55;;;;;;;12.00;2.25;;;;;;;;;;4968989;28;20035;-65
2024/01/03 01:15:21;;;;;;;7.38;2.05;;;;;;;;;;4969384;28;20047;-65
2024/01/03 01:17:47;;;;;;;13.55;2.08;;;;;;;;;;4969055;28;20043;-65
2024/01/03 01:20:13;;;;;;;10.23;1.60;;;;;;;;;;4983297;28;20042;-65
2024/01/03 01:22:39;;;;;;;7.88;1.58;;;;;;;;;;4988404;28;20053;-65
2024/01/03 01:25:05;;;;;;;11.13;1.95;;;;;;;;;;4988195;28;20042;-65
2024/01/03 01:27:32;;;;;;;13.00;2.00;;;;;;;;;;4988670;28;20731;-65
2024/01/03 01:29:58;;;;;;;10.75;1.63;;;;;;;;;;4988289;28;20050;-65
2024/01/03 01:32:24;;;;;;;12.07;1.80;;;;;;;;;;4981139;28;20093;-65
2024/01/03 01:34:50;;;;;;;17.25;2.30;;;;;;;;;;4988109;28;20636;-65
2024/01/03 01:37:15;;;;;;;9.13;1.73;;;;;;;;;;4985058;28;20073;-65
2024/01/03 01:39:44;;;;;;;11.75;2.13;;;;;;;;;;4968379;28;20039;-65
2024/01/03 01:42:10;;;;;;;9.95;1.52;;;;;;;;;;4968872;28;20557;-65
2024/01/03 01:44:36;;;;;;;13.80;2.33;;;;;;;;;;4966962;28;20094;-65
2024/01/03 01:47:05;;;;;;;5.80;1.75;;;;;;;;;;4968220;28;20042;-65
2024/01/03 01:49:31;;;;;;;10.80;1.73;;;;;;;;;;4968767;28;20071;-65
2024/01/03 01:51:57;;;;;;;9.95;1.45;;;;;;;;;;4968060;28;20583;-65
2024/01/03 01:54:23;;;;;;;11.18;1.98;;;;;;;;;;4968542;28;20043;-65
2024/01/03 01:56:50;;;;;;;8.50;1.83;;;;;;;;;;4968456;28;20122;-65
2024/01/03 01:59:17;;;;;;;11.80;1.83;;;;;;;;;;4968136;28;20055;-65
2024/01/03 02:01:43;;;;;;;14.27;1.88;;;;;;;;;;4968146;28;20081;-65
2024/01/03 02:04:09;;;;;;;9.20;2.38;;;;;;;;;;4968754;28;20038;-65
2024/01/03 02:06:36;;;;;;;15.68;1.90;;;;;;;;;;4968277;28;20039;-65
2024/01/03 02:09:02;;;;;;;14.48;2.55;;;;;;;;;;4968329;28;20073;-65
2024/01/03 02:11:28;;;;;;;10.20;2.13;;;;;;;;;;4972072;28;20423;-65
2024/01/03 02:13:54;;;;;;;9.57;1.90;;;;;;;;;;4987660;28;20041;-65
2024/01/03 02:16:20;;;;;;;8.80;1.40;;;;;;;;;;4969852;28;20092;-65
2024/01/03 02:18:47;;;;;;;9.73;1.40;;;;;;;;;;4967077;28;20650;-65
2024/01/03 02:21:15;;;;;;;9.38;1.35;;;;;;;;;;4967717;28;20034;-65
2024/01/03 02:23:41;;;;;;;9.23;1.20;;;;;;;;;;4967809;28;20054;-65
2024/01/03 02:26:08;;;;;;;7.10;1.20;;;;;;;;;;4967993;28;20035;-65
2024/01/03 02:28:34;;;;;;;10.07;1.25;;;;;;;;;;4967844;28;20043;-65
2024/01/03 02:31:00;;;;;;;5.60;1.05;;;;;;;;;;4967624;28;20041;-65
2024/01/03 02:33:26;;;;;;;5.00;1.20;;;;;;;;;;4967963;28;20039;-65
2024/01/03 02:35:52;;;;;;;9.35;1.08;;;;;;;;;;4967687;28;20177;-65
2024/01/03 02:38:18;;;;;;;4.68;1.00;;;;;;;;;;4967500;28;20049;-65
2024/01/03 02:40:44;;;;;;;15.25;1.23;;;;;;;;;;4967174;28;20038;-65
2024/01/03 02:43:10;;;;;;;8.25;1.30;;;;;;;;;;4967419;28;20054;-65
2024/01/03 02:45:37;;;;;;;5.28;1.13;;;;;;;;;;4967682;28;20043;-65
2024/01/03 02:48:03;;;;;;;9.68;1.17;;;;;;;;;;4967674;28;20085;-65
2024/01/03 02:50:29;;;;;;;2.58;0.95;;;;;;;;;;4967738;28;20070;-65
2024/01/03 02:52:55;;;;;;;5.93;0.80;;;;;;;;;;4949959;28;20134;-65
2024/01/03 02:55:21;;;;;;;7.93;1.05;;;;;;;;;;4967614;28;20126;-65
2024/01/03 02:57:47;;;;;;;7.72;0.75;;;;;;;;;;4951735;28;20460;-65
2024/01/03 03:00:13;;;;;;;4.70;1.08;;;;;;;;;;4971515;28;20062;-65
2024/01/03 03:02:40;;;;;;;4.22;0.50;;;;;;;;;;4971156;28;20046;-65
2024/01/03 03:05:06;;;;;;;2.63;0.68;;;;;;;;;;4971653;28;20043;-65
2024/01/03 03:07:32;;;;;;;2.20;0.60;;;;;;;;;;4971498;28;20039;-65
2024/01/03 03:09:58;;;;;;;2.60;0.70;;;;;;;;;;4971676;28;20107;-65
2024/01/03 03:12:24;;;;;;;2.22;0.55;;;;;;;;;;4982486;28;20074;-65
2024/01/03 03:14:50;;;;;;;3.38;0.60;;;;;;;;;;4990886;28;20042;-65
2024/01/03 03:17:16;;;;;;;8.25;1.13;;;;;;;;;;4990683;28;20089;-65
2024/01/03 03:19:43;;;;;;;2.38;0.57;;;;;;;;;;4980121;28;20049;-65
2024/01/03 03:22:09;;;;;;;4.70;0.85;;;;;;;;;;4970857;28;20043;-65
2024/01/03 03:24:35;;;;;;;4.70;0.60;;;;;;;;;;4970836;28;20260;-65
2024/01/03 03:27:01;;;;;;;2.35;0.60;;;;;;;;;;4971169;28;20046;-65
2024/01/03 03:29:27;;;;;;;2.85;0.68;;;;;;;;;;4953605;28;20572;-65
2024/01/03 03:31:53;;;;;;;5.47;1.02;;;;;;;;;;4970686;28;20034;-65
2024/01/03 03:34:19;;;;;;;4.93;0.80;;;;;;;;;;4970952;28;20440;-65
2024/01/03 03:36:45;;;;;;;4.40;1.00;;;;;;;;;;4970942;28;20031;-65
2024/01/03 03:39:11;;;;;;;4.43;1.15;;;;;;;;;;4970751;28;20082;-65
2024/01/03 03:41:37;;;;;;;6.93;0.88;;;;;;;;;;4970832;28;20145;-65
2024/01/03 03:44:04;;;;;;;6.63;1.05;;;;;;;;;;4970479;28;20039;-65
2024/01/03 03:46:30;;;;;;;7.25;1.38;;;;;;;;;;4970863;28;20049;-65
2024/01/03 03:48:56;;;;;;;7.75;1.27;;;;;;;;;;4970636;28;20592;-65
2024/01/03 03:51:22;;;;;;;9.15;1.35;;;;;;;;;;4957622;28;20042;-65
2024/01/03 03:53:48;;;;;;;4.60;1.27;;;;;;;;;;4970001;28;20378;-65
2024/01/03 03:56:24;;;;;;;9.30;1.73;;;;;;;;;;4970602;28;20054;-65
2024/01/03 03:58:50;;;;;;;9.77;1.80;;;;;;;;;;4968126;28;20035;-65
2024/01/03 04:01:17;;;;;;;13.85;2.08;;;;;;;;;;4953040;28;20394;-65
2024/01/03 04:03:43;;;;;;;21.92;2.50;;;;;;;;;;4957077;28;20042;-65
2024/01/03 04:06:09;;;;;;;25.23;3.33;;;;;;;;;;4982730;28;20046;-65
2024/01/03 04:08:35;;;;;;;32.47;3.78;;;;;;;;;;4974554;28;20039;-65
2024/01/03 04:11:04;;;;;;;27.88;3.50;;;;;;;;;;4970361;28;20175;-65
2024/01/03 04:13:30;;;;;;;34.15;5.47;;;;;;;;;;4969806;28;20137;-65
2024/01/03 04:15:56;;;;;;;26.30;3.70;;;;;;;;;;4969854;28;20651;-65
2024/01/03 04:18:22;;;;;;;23.00;4.32;;;;;;;;;;4970169;28;20047;-65
2024/01/03 04:20:48;;;;;;;31.50;4.13;;;;;;;;;;4980380;28;20469;-65
2024/01/03 04:23:14;;;;;;;27.85;3.90;;;;;;;;;;4989219;28;20057;-65
2024/01/03 04:25:40;;;;;;;28.38;3.97;;;;;;;;;;4989176;28;20069;-65
2024/01/03 04:28:06;;;;;;;24.08;3.63;;;;;;;;;;4989309;28;20062;-65
2024/01/03 04:30:32;;;;;;;22.33;3.70;;;;;;;;;;4955531;28;20038;-65
2024/01/03 04:32:58;;;;;;;24.48;3.38;;;;;;;;;;4981900;28;20408;-65
2024/01/03 04:35:24;;;;;;;30.42;4.13;;;;;;;;;;4989167;28;20042;-65
2024/01/03 04:37:50;;;;;;;26.73;3.63;;;;;;;;;;4978696;28;20047;-65
2024/01/03 04:40:16;;;;;;;28.67;3.88;;;;;;;;;;4969475;28;20049;-65
2024/01/03 04:42:42;;;;;;;33.85;4.80;;;;;;;;;;4951879;28;20797;-65
2024/01/03 04:45:09;;;;;;;26.95;4.25;;;;;;;;;;4969237;28;20038;-65
2024/01/03 04:47:35;;;;;;;30.65;3.70;;;;;;;;;;4969651;28;20069;-65
2024/01/03 04:50:01;;;;;;;28.20;4.15;;;;;;;;;;4969503;28;20058;-65
2024/01/03 04:52:27;;;;;;;30.42;4.40;;;;;;;;;;4969315;28;20521;-65
2024/01/03 04:54:53;;;;;;;29.77;4.60;;;;;;;;;;4968848;28;20043;-65
2024/01/03 04:57:19;;;;;;;23.67;4.35;;;;;;;;;;4968962;28;20464;-65
2024/01/03 04:59:45;;;;;;;22.65;3.47;;;;;;;;;;4966625;28;20070;-65
2024/01/03 05:02:11;;;;;;;28.23;4.18;;;;;;;;;;4969043;28;20563;-65
2024/01/03 05:04:37;;;;;;;30.13;4.28;;;;;;;;;;4968802;28;20085;-65
2024/01/03 05:07:04;;;;;;;25.75;3.58;;;;;;;;;;4969101;28;20041;-65
2024/01/03 05:09:34;;;;;;;24.35;3.80;;;;;;;;;;4968825;28;20039;-65
2024/01/03 05:12:00;;;;;;;26.52;3.75;;;;;;;;;;4971305;28;20038;-65
2024/01/03 05:14:26;;;;;;;22.10;4.03;;;;;;;;;;4951264;28;20314;-65
2024/01/03 05:16:52;;;;;;;27.63;4.20;;;;;;;;;;4969555;28;20129;-65
2024/01/03 05:19:18;;;;;;;22.90;3.42;;;;;;;;;;4969036;28;20042;-65
2024/01/03 05:21:44;;;;;;;28.90;3.63;;;;;;;;;;4968277;28;20054;-65
2024/01/03 05:24:10;;;;;;;25.27;4.50;;;;;;;;;;4968868;28;20045;-65
2024/01/03 05:26:36;;;;;;;26.60;4.47;;;;;;;;;;4968255;28;20038;-65
2024/01/03 05:29:02;;;;;;;25.70;3.58;;;;;;;;;;4968991;28;20122;-65
2024/01/03 05:31:28;;;;;;;21.65;3.28;;;;;;;;;;4968473;28;20038;-65
2024/01/03 05:33:54;;;;;;;23.13;3.35;;;;;;;;;;4968622;28;20666;-65
2024/01/03 05:36:20;;;;;;;25.98;4.15;;;;;;;;;;4968512;28;20038;-65
2024/01/03 05:38:46;;;;;;;20.65;3.17;;;;;;;;;;4950878;28;20046;-65
2024/01/03 05:41:12;;;;;;;28.75;3.53;;;;;;;;;;4968390;28;20674;-65
2024/01/03 05:43:38;;;;;;;23.45;3.63;;;;;;;;;;4968504;28;20397;-65
2024/01/03 05:46:04;;;;;;;21.95;3.83;;;;;;;;;;4968517;28;20045;-65
2024/01/03 05:48:30;;;;;;;21.92;3.63;;;;;;;;;;4968893;28;20456;-65
2024/01/03 05:50:56;;;;;;;24.05;3.78;;;;;;;;;;4968947;28;20106;-65
2024/01/03 05:53:22;;;;;;;27.40;4.03;;;;;;;;;;4968706;28;20050;-65
2024/01/03 05:55:48;;;;;;;21.65;3.50;;;;;;;;;;4968301;28;20489;-65
2024/01/03 05:58:14;;;;;;;22.33;3.83;;;;;;;;;;4968110;28;20045;-65
2024/01/03 06:00:40;;;;;;;19.05;3.08;;;;;;;;;;4968210;28;20110;-65
2024/01/03 06:03:06;;;;;;;26.55;4.15;;;;;;;;;;4975300;28;20054;-65
2024/01/03 06:05:32;;;;;;;20.70;3.80;;;;;;;;;;4959186;28;20110;-65
2024/01/03 06:07:58;;;;;;;23.88;3.20;;;;;;;;;;4976627;28;20070;-65
2024/01/03 06:10:24;;;;;;;21.55;3.15;;;;;;;;;;4984843;28;20093;-65
2024/01/03 06:12:50;;;;;;;18.83;2.95;;;;;;;;;;4985491;28;20074;-65
2024/01/03 06:15:16;;;;;;;18.70;2.67;;;;;;;;;;4987005;28;20040;-65
2024/01/03 06:17:42;;;;;;;21.45;2.95;;;;;;;;;;4987410;28;20473;-65
2024/01/03 06:20:08;;;;;;;13.98;2.33;;;;;;;;;;4987455;28;20125;-65
2024/01/03 06:22:34;;;;;;;16.02;1.98;;;;;;;;;;4987368;28;20042;-65
2024/01/03 06:25:00;;;;;;;15.55;2.85;;;;;;;;;;4986911;28;20073;-65
2024/01/03 06:27:26;;;;;;;23.05;2.88;;;;;;;;;;4987284;28;20081;-65
2024/01/03 06:29:52;;;;;;;18.55;3.75;;;;;;;;;;4987556;28;20042;-65
2024/01/03 06:32:18;;;;;;;24.63;4.20;;;;;;;;;;4979131;28;20042;-65
2024/01/03 06:34:44;;;;;;;20.58;3.30;;;;;;;;;;4986896;28;20046;-65
2024/01/03 06:37:10;;;;;;;22.33;3.28;;;;;;;;;;4987211;28;20046;-65
2024/01/03 06:39:36;;;;;;;22.80;3.83;;;;;;;;;;4987065;28;20081;-65
2024/01/03 06:42:05;;;;;;;22.88;4.03;;;;;;;;;;4987042;28;20059;-65
2024/01/03 06:44:31;;;;;;;23.90;3.40;;;;;;;;;;4986837;28;20460;-65
2024/01/03 06:46:57;;;;;;;17.70;3.75;;;;;;;;;;4985813;28;20077;-65
2024/01/03 06:49:23;;;;;;;21.50;3.42;;;;;;;;;;4967748;28;20448;-65
2024/01/03 06:51:49;;;;;;;26.92;3.50;;;;;;;;;;4967602;28;20042;-65
2024/01/03 06:54:15;;;;;;;26.17;3.50;;;;;;;;;;4967749;28;20090;-65
2024/01/03 06:56:41;;;;;;;24.05;3.83;;;;;;;;;;4967150;28;20031;-65
2024/01/03 06:59:07;;;;;;;26.80;4.38;;;;;;;;;;4967435;28;20771;-65
2024/01/03 07:01:33;;;;;;;24.95;3.88;;;;;;;;;;4966483;28;20042;-65
2024/01/03 07:04:01;;;;;;;26.17;3.75;;;;;;;;;;4967746;28;20393;-65
2024/01/03 07:06:27;;;;;;;33.55;4.55;;;;;;;;;;4975208;28;20039;-65
2024/01/03 07:08:53;;;;;;;23.50;3.45;;;;;;;;;;4976044;28;20031;-65
2024/01/03 07:11:20;;;;;;;22.20;3.60;;;;;;;;;;4974399;28;20544;-65
2024/01/03 07:13:46;;;;;;;21.05;3.50;;;;;;;;;;4986787;28;20104;-65
2024/01/03 07:16:12;;;;;;;26.70;3.17;;;;;;;;;;4986623;28;20589;-65
2024/01/03 07:18:38;;;;;;;18.23;2.80;;;;;;;;;;4986516;28;20042;-65
2024/01/03 07:21:05;;;;;;;23.88;3.33;;;;;;;;;;4986948;28;20046;-65
2024/01/03 07:23:31;;;;;;;21.00;3.35;;;;;;;;;;4986886;28;20042;-65
2024/01/03 07:25:57;;;;;;;18.98;3.05;;;;;;;;;;4987189;28;20034;-65
2024/01/03 07:28:23;;;;;;;27.52;3.88;;;;;;;;;;4987357;28;20077;-65
2024/01/03 07:30:49;;;;;;;22.63;3.85;;;;;;;;;;4986998;28;20161;-65
2024/01/03 07:33:16;;;;;;;16.15;3.08;;;;;;;;;;4962389;28;20046;-65
2024/01/03 07:35:42;;;;;;;16.48;2.78;;;;;;;;;;4986740;28;20049;-65
2024/01/03 07:38:08;;;;;;;16.17;3.13;;;;;;;;;;4986934;28;20827;-65
2024/01/03 07:40:34;;;;;;;22.80;2.80;;;;;;;;;;4987228;28;20038;-65
2024/01/03 07:43:00;;;;;;;11.48;2.33;;;;;;;;;;4987793;28;20042;-65
2024/01/03 07:45:26;;;;;;;17.25;2.90;;;;;;;;;;4973157;28;20092;-65
2024/01/03 07:47:52;;;;;;;25.80;3.50;;;;;;;;;;4982045;28;20069;-65
2024/01/03 07:50:18;;;;;;;21.10;3.15;;;;;;;;;;4971288;28;20539;-65
2024/01/03 07:52:44;;;;;;;19.15;3.05;;;;;;;;;;4971001;28;20043;-65
2024/01/03 07:55:11;;;;;;;22.45;2.90;;;;;;;;;;4970743;28;20078;-65
2024/01/03 07:57:37;;;;;;;16.92;3.22;;;;;;;;;;4963536;28;20109;-70
2024/01/03 08:00:03;;;;;;;21.52;3.38;;;;;;;;;;4971271;28;20050;-71
2024/01/03 08:02:29;;;;;;;24.90;3.72;;;;;;;;;;4952710;28;20121;-73
2024/01/03 08:04:55;;;;;;;18.15;3.08;;;;;;;;;;4968961;28;20582;-69
2024/01/03 08:07:21;;;;;;;21.65;3.10;;;;;;;;;;4970158;28;20042;-69
2024/01/03 08:09:49;;;;;;;19.90;3.03;;;;;;;;;;4952966;28;20049;-69
2024/01/03 08:12:15;;;;;;;19.42;3.28;;;;;;;;;;4955076;28;20039;-69
2024/01/03 08:14:41;;;;;;;15.05;2.92;;;;;;;;;;4960738;28;20676;-68
2024/01/03 08:17:07;;;;;;;16.85;3.08;;;;;;;;;;4969969;28;20053;-69
2024/01/03 08:19:33;;;;;;;19.08;2.47;;;;;;;;;;4970164;28;20038;-68
2024/01/03 08:22:00;;;;;;;15.40;2.78;;;;;;;;;;4969950;28;20043;-69
2024/01/03 08:24:26;;;;;;;11.80;1.98;;;;;;;;;;4969843;28;20039;-68
2024/01/03 08:26:52;;;;;;;14.25;2.60;;;;;;;;;;4961956;28;20565;-68
2024/01/03 08:29:18;;;;;;;20.10;2.88;;;;;;;;;;4973498;28;20162;-69
2024/01/03 08:31:47;;;;;;;17.73;2.72;;;;;;;;;;4967030;28;20042;-68
2024/01/03 08:34:13;;;;;;;11.82;2.20;;;;;;;;;;4980128;28;20688;-68
2024/01/03 08:36:40;;;;;;;14.57;2.60;;;;;;;;;;4977237;28;20069;-68
2024/01/03 08:39:07;;;;;;;14.40;2.40;;;;;;;;;;4961677;28;20499;-68
2024/01/03 08:41:33;;;;;;;16.20;2.88;;;;;;;;;;4976899;28;20045;-68
2024/01/03 08:43:59;;;;;;;11.63;2.50;;;;;;;;;;4977764;28;20038;-68
2024/01/03 08:46:28;;;;;;;12.50;2.10;;;;;;;;;;4975032;28;20035;-68
2024/01/03 08:48:54;;;;;;;20.83;2.58;;;;;;;;;;4976927;28;20041;-68
2024/01/03 08:51:21;;;;;;;14.18;2.60;;;;;;;;;;4962573;28;20034;-69
2024/01/03 08:53:47;;;;;;;13.85;2.15;;;;;;;;;;4979298;28;20082;-67
2024/01/03 08:56:17;;;;;;;14.57;2.30;;;;;;;;;;4951334;28;20053;-67
2024/01/03 08:58:43;;;;;;;11.23;2.05;;;;;;;;;;4958576;28;20042;-68
2024/01/03 09:01:09;;;;;;;15.65;2.47;;;;;;;;;;4969375;28;20057;-68
2024/01/03 09:03:36;;;;;;;14.73;2.25;;;;;;;;;;4968967;28;20056;-68
2024/01/03 09:06:05;;;;;;;17.40;2.40;;;;;;;;;;4968428;28;20042;-68
2024/01/03 09:08:31;;;;;;;13.80;2.60;;;;;;;;;;4967665;28;20359;-67
2024/01/03 09:10:57;;;;;;;15.50;2.63;;;;;;;;;;4969627;28;20043;-67
2024/01/03 09:13:23;;;;;;;17.45;2.53;;;;;;;;;;4969204;28;20046;-68
2024/01/03 09:15:49;;;;;;;16.73;2.42;;;;;;;;;;4968730;28;20039;-69
2024/01/03 09:18:15;;;;;;;14.45;2.05;;;;;;;;;;4968605;28;20615;-68
2024/01/03 09:20:41;;;;;;;14.52;2.88;;;;;;;;;;4967718;28;20046;-68
2024/01/03 09:23:07;;;;;;;20.20;3.13;;;;;;;;;;4957693;28;20945;-68
2024/01/03 09:25:33;;;;;;;14.02;2.28;;;;;;;;;;4968848;28;20027;-68
2024/01/03 09:27:59;;;;;;;21.67;2.90;;;;;;;;;;4968228;28;20085;-69
2024/01/03 09:30:25;;;;;;;21.85;3.03;;;;;;;;;;4968555;28;20516;-69
2024/01/03 09:32:51;;;;;;;22.60;3.15;;;;;;;;;;4968508;28;20035;-68
2024/01/03 09:35:18;;;;;;;20.88;2.78;;;;;;;;;;4968452;28;20118;-69
2024/01/03 09:37:44;;;;;;;19.58;3.20;;;;;;;;;;4967789;28;20042;-68
2024/01/03 09:40:11;;;;;;;18.02;3.03;;;;;;;;;;4968428;28;20054;-68
2024/01/03 09:42:37;;;;;;;22.40;3.15;;;;;;;;;;4968537;28;20130;-68
2024/01/03 09:45:04;;;;;;;16.08;2.90;;;;;;;;;;4967205;28;20137;-68
2024/01/03 09:47:30;;;;;;;13.23;2.38;;;;;;;;;;4967974;28;20069;-68
2024/01/03 09:49:56;;;;;;;11.88;2.30;;;;;;;;;;4968055;28;20126;-68
2024/01/03 09:52:23;;;;;;;20.65;2.67;;;;;;;;;;4966158;28;20073;-68
2024/01/03 09:54:50;;;;;;;14.88;2.78;;;;;;;;;;4967771;28;20042;-68
2024/01/03 09:57:18;;;;;;;15.52;2.65;;;;;;;;;;4967397;28;20053;-68
2024/01/03 09:59:44;;;;;;;21.88;3.40;;;;;;;;;;4967226;28;20062;-68
2024/01/03 10:02:12;;;;;;;14.35;3.00;;;;;;;;;;4965342;28;20742;-68
2024/01/03 10:04:38;;;;;;;16.90;2.55;;;;;;;;;;4963189;28;20731;-69
2024/01/03 10:07:04;;;;;;;13.45;2.03;;;;;;;;;;4957663;28;20058;-68
2024/01/03 10:09:45;;;;;;;12.98;1.95;;;;;;;;;;4966244;28;20094;-68
2024/01/03 10:12:16;;;;;;;16.63;1.95;;;;;;;;;;4974809;28;20050;-68
2024/01/03 10:14:42;;;;;;;15.73;2.38;;;;;;;;;;4967148;28;20043;-69
2024/01/03 10:17:09;;;;;;;15.55;2.47;;;;;;;;;;4949784;28;20058;-69
2024/01/03 10:19:36;;;;;;;13.93;2.67;;;;;;;;;;4952562;28;20720;-68
2024/01/03 10:22:02;;;;;;;17.20;2.67;;;;;;;;;;4977530;28;20039;-69
2024/01/03 10:24:31;;;;;;;14.57;2.38;;;;;;;;;;4966255;28;20035;-69
2024/01/03 10:27:07;;;;;;;16.52;3.00;;;;;;;;;;4941315;28;20509;-67
2024/01/03 10:29:34;;;;;;;19.15;3.15;;;;;;;;;;4976018;28;20097;-69
2024/01/03 10:32:02;;;;;;;17.27;2.33;;;;;;;;;;4951013;28;20093;-69
2024/01/03 10:34:28;;;;;;;21.73;3.05;;;;;;;;;;4970966;28;20042;-67
2024/01/03 10:36:55;;;;;;;19.58;2.20;;;;;;;;;;4971063;28;20049;-69
2024/01/03 10:39:22;;;;;;;18.20;2.90;;;;;;;;;;4959103;28;20485;-69
2024/01/03 10:41:48;;;;;;;17.90;2.53;;;;;;;;;;4966615;28;20046;-69
2024/01/03 10:44:15;;;;;;;18.75;2.88;;;;;;;;;;4965829;28;20070;-67
2024/01/03 10:46:42;;;;;;;15.68;2.72;;;;;;;;;;4970683;28;20038;-69
2024/01/03 10:49:08;;;;;;;21.55;3.78;;;;;;;;;;4950120;28;20755;-69
2024/01/03 10:51:41;;;;;;;22.27;3.30;;;;;;;;;;4954973;28;20034;-67
2024/01/03 10:54:08;;;;;;;20.02;2.65;;;;;;;;;;4937018;28;20501;-66
2024/01/03 10:56:35;;;;;;;16.73;2.45;;;;;;;;;;4960780;28;20031;-68
2024/01/03 10:59:02;;;;;;;19.45;2.97;;;;;;;;;;4963690;28;20047;-68
2024/01/03 11:01:47;;;;;;;19.83;3.45;;;;;;;;;;4963966;28;20047;-67
2024/01/03 11:04:13;;;;;;;15.63;2.60;;;;;;;;;;4965470;28;20070;-67
2024/01/03 11:06:56;;;;;;;15.90;2.80;;;;;;;;;;4965929;28;20534;-68
2024/01/03 11:09:25;;;;;;;17.05;2.50;;;;;;;;;;4956947;28;20386;-67
2024/01/03 11:12:05;;;;;;;19.90;3.10;;;;;;;;;;4964848;28;20046;-67
2024/01/03 11:14:31;;;;;;;21.45;3.10;;;;;;;;;;4964847;28;20031;-66
2024/01/03 11:16:57;;;;;;;18.60;2.95;;;;;;;;;;4962520;28;20041;-67
2024/01/03 11:19:27;;;;;;;24.00;3.15;;;;;;;;;;4970833;28;20035;-66
2024/01/03 11:21:53;;;;;;;20.58;3.42;;;;;;;;;;4968206;28;20034;-67
2024/01/03 11:24:19;;;;;;;29.10;3.67;;;;;;;;;;4968625;28;20043;-67
2024/01/03 11:26:58;;;;;;;21.13;3.17;;;;;;;;;;4953967;28;20034;-65
2024/01/03 11:29:45;;;;;;;22.38;3.80;;;;;;;;;;4973390;28;20088;-66
2024/01/03 11:32:31;;;;;;;25.42;3.70;;;;;;;;;;4974819;28;20046;-66
2024/01/03 11:34:57;;;;;;;29.23;3.88;;;;;;;;;;4969223;28;20089;-66
2024/01/03 11:37:24;;;;;;;28.48;4.68;;;;;;;;;;4972908;28;20597;-66
2024/01/03 11:39:51;;;;;;;28.10;4.13;;;;;;;;;;4966250;28;20139;-67
2024/01/03 11:42:20;;;;;;;28.48;4.35;;;;;;;;;;4965726;28;20085;-66
2024/01/03 11:44:47;;;;;;;33.22;4.60;;;;;;;;;;4970377;28;20047;-66
2024/01/03 11:47:13;;;;;;;23.58;4.90;;;;;;;;;;4969048;28;20747;-66
2024/01/03 11:49:40;;;;;;;29.73;4.25;;;;;;;;;;4968913;28;20637;-66
2024/01/03 11:52:06;;;;;;;28.88;4.07;;;;;;;;;;4968944;28;20704;-66
2024/01/03 11:54:33;;;;;;;26.30;4.22;;;;;;;;;;4964271;28;20039;-66
2024/01/03 11:57:07;;;;;;;25.17;3.83;;;;;;;;;;4972680;28;20038;-67
2024/01/03 11:59:33;;;;;;;30.48;4.13;;;;;;;;;;4969012;28;20054;-67
2024/01/03 12:01:59;;;;;;;27.17;4.47;;;;;;;;;;4969519;28;20722;-66
2024/01/03 12:04:26;;;;;;;21.77;3.60;;;;;;;;;;4973199;28;20178;-66
2024/01/03 12:06:59;;;;;;;18.80;3.97;;;;;;;;;;4969438;28;20049;-66
2024/01/03 12:09:31;;;;;;;27.88;2.72;;;;;;;;;;4968570;28;20039;-66
2024/01/03 12:11:58;;;;;;;20.00;3.17;;;;;;;;;;4962915;28;20042;-66
2024/01/03 12:14:24;;;;;;;19.10;2.88;;;;;;;;;;4967426;28;20481;-66
2024/01/03 12:16:54;;;;;;;18.77;3.58;;;;;;;;;;4968867;28;20034;-67
2024/01/03 12:19:24;;;;;;;19.02;3.00;;;;;;;;;;4973341;28;20885;-66
2024/01/03 12:21:54;;;;;;;14.07;2.97;;;;;;;;;;4973274;28;20035;-67
2024/01/03 12:24:20;;;;;;;21.38;2.65;;;;;;;;;;4969115;28;20066;-66
2024/01/03 12:26:49;;;;;;;15.18;3.17;;;;;;;;;;4969359;28;20073;-65
2024/01/03 12:29:15;;;;;;;18.77;2.90;;;;;;;;;;4968735;28;20039;-67
2024/01/03 12:31:41;;;;;;;15.93;3.50;;;;;;;;;;4968958;28;20598;-67
2024/01/03 12:34:08;;;;;;;20.77;3.17;;;;;;;;;;4974364;28;20054;-67
2024/01/03 12:36:34;;;;;;;13.63;2.50;;;;;;;;;;4968583;28;20178;-67
2024/01/03 12:39:01;;;;;;;24.63;3.47;;;;;;;;;;4968385;28;20042;-66
2024/01/03 12:41:27;;;;;;;19.63;3.10;;;;;;;;;;3234689;28;10000830;-68
2024/01/03 12:43:55;;;;;;;19.35;2.90;;;;;;;;;;4968541;28;20041;-66
2024/01/03 12:46:21;;;;;;;20.67;2.83;;;;;;;;;;4972028;28;20045;-67
2024/01/03 12:48:47;;;;;;;20.80;3.15;;;;;;;;;;4968601;28;20035;-67
2024/01/03 12:51:13;;;;;;;20.38;2.58;;;;;;;;;;4970103;28;20042;-67
2024/01/03 12:53:39;;;;;;;19.58;3.70;;;;;;;;;;4968976;28;20479;-67
2024/01/03 12:56:05;;;;;;;18.02;3.03;;;;;;;;;;4959994;28;20135;-67
2024/01/03 12:58:31;;;;;;;15.63;2.90;;;;;;;;;;4967550;28;20050;-67
2024/01/03 13:00:58;;;;;;;13.32;2.35;;;;;;;;;;4937200;29;20059;-67
2024/01/03 13:03:24;;;;;;;13.95;2.40;;;;;;;;;;4929711;29;20481;-67
2024/01/03 13:05:51;;;;;;;16.90;2.33;;;;;;;;;;4931206;29;20421;-67
2024/01/03 13:08:17;;;;;;;16.30;2.45;;;;;;;;;;4932927;29;20046;-67
2024/01/03 13:10:44;;;;;;;22.08;3.17;;;;;;;;;;4933762;29;20035;-67
2024/01/03 13:13:10;;;;;;;11.85;2.38;;;;;;;;;;4933046;29;20550;-67
2024/01/03 13:15:36;;;;;;;15.02;2.17;;;;;;;;;;4927120;29;21070;-67
2024/01/03 13:18:02;;;;;;;16.95;2.30;;;;;;;;;;4919352;29;20051;-67
2024/01/03 13:20:29;;;;;;;15.05;2.70;;;;;;;;;;4926566;29;20187;-67
2024/01/03 13:22:55;;;;;;;20.52;3.53;;;;;;;;;;4928524;29;20035;-66
2024/01/03 13:25:20;;;;;;;14.82;2.65;;;;;;;;;;4941775;29;20039;-66
2024/01/03 13:27:47;;;;;;;14.20;2.70;;;;;;;;;;4929804;29;20719;-66
2024/01/03 13:30:13;;;;;;;22.08;6.25;;;;;;;;;;4929015;29;20042;-65
2024/01/03 13:32:46;;;;;;;;;;;;;;;;;;4291142;28;10001588;-65
2024/01/03 13:35:12;;;;;;;19.25;4.28;;;;;;;;;;4927687;29;20493;-65
2024/01/03 13:37:38;;;;;;;17.08;2.25;;;;;;;;;;4928357;29;20047;-65
2024/01/03 13:40:04;;;;;;;14.32;2.30;;;;;;;;;;4934699;29;20043;-66
2024/01/03 13:42:30;;;;;;;9.95;2.40;;;;;;;;;;4933477;29;20734;-66
2024/01/03 13:44:59;;;;;;;21.98;3.33;;;;;;;;;;4931421;29;20043;-67
2024/01/03 13:47:25;;;;;;;14.65;2.38;;;;;;;;;;4934067;29;20359;-66
2024/01/03 13:49:54;;;;;;;14.35;2.47;;;;;;;;;;4932705;29;20463;-66
2024/01/03 13:52:20;;;;;;;14.77;2.80;;;;;;;;;;4927955;29;20738;-66
2024/01/03 13:54:46;;;;;;;17.90;2.38;;;;;;;;;;4928804;29;20046;-66
2024/01/03 13:57:12;;;;;;;21.48;2.75;;;;;;;;;;4931726;29;20043;-66
2024/01/03 13:59:38;;;;;;;20.15;2.60;;;;;;;;;;4938374;28;20449;-66
2024/01/03 14:02:04;;;;;;;12.50;2.58;;;;;;;;;;4964503;28;20133;-65
2024/01/03 14:04:30;;;;;;;16.23;2.65;;;;;;;;;;4969186;28;20186;-66
2024/01/03 14:06:56;;;;;;;14.93;2.28;;;;;;;;;;4953641;28;20055;-66
2024/01/03 14:09:22;;;;;;;14.23;1.90;;;;;;;;;;4968882;28;20050;-66
2024/01/03 14:11:48;;;;;;;13.93;1.80;;;;;;;;;;4976061;28;20129;-68
2024/01/03 14:14:14;;;;;;;11.88;2.08;;;;;;;;;;4978612;28;20134;-68
2024/01/03 14:16:47;;;;;;;13.07;1.80;;;;;;;;;;4981009;28;20034;-67
2024/01/03 14:19:13;;;;;;;11.73;1.95;;;;;;;;;;4976077;28;20097;-67
2024/01/03 14:21:52;;;;;;;11.65;2.45;;;;;;;;;;4969148;28;20429;-68
2024/01/03 14:24:18;;;;;;;11.60;2.03;;;;;;;;;;4968873;28;20047;-67
2024/01/03 14:26:44;;;;;;;16.35;2.45;;;;;;;;;;4972363;28;20038;-67
2024/01/03 14:29:10;;;;;;;12.43;2.00;;;;;;;;;;4953242;28;20109;-67